createdAt,value
2022-12-01T00:01:16.235Z,100.73
2022-12-01T00:03:43.319Z,92.17
2022-12-01T00:06:11.345Z,82.17
2022-12-01T00:08:38.831Z,89.83
2022-12-01T00:11:12.212Z,83.00
2022-12-01T00:13:39.218Z,78.90
2022-12-01T00:16:14.221Z,76.27
2022-12-01T00:18:41.467Z,77.33
2022-12-01T00:21:19.775Z,74.10
2022-12-01T00:23:47.975Z,75.33
2022-12-01T00:26:16.338Z,75.37
2022-12-01T00:28:43.367Z,79.50
2022-12-01T00:31:11.881Z,80.13
2022-12-01T00:33:39.808Z,85.20
2022-12-01T00:36:07.507Z,78.53
2022-12-01T00:38:34.944Z,74.80
2022-12-01T00:41:02.258Z,82.17
2022-12-01T00:43:29.196Z,74.47
2022-12-01T00:45:56.661Z,80.37
2022-12-01T00:48:23.966Z,76.07
2022-12-01T00:50:52.770Z,73.70
2022-12-01T00:53:19.665Z,84.23
2022-12-01T00:55:47.083Z,72.23
2022-12-01T00:58:13.921Z,73.67
2022-12-01T01:00:42.879Z,80.80
2022-12-01T01:03:10.790Z,73.50
2022-12-01T01:05:39.034Z,68.77
2022-12-01T01:08:10.957Z,72.33
2022-12-01T01:10:46.302Z,70.80
2022-12-01T01:13:14.245Z,76.87
2022-12-01T01:15:41.400Z,77.70
2022-12-01T01:18:10.411Z,71.83
2022-12-01T01:20:37.415Z,72.03
2022-12-01T01:23:04.329Z,72.03
2022-12-01T01:25:32.717Z,86.23
2022-12-01T01:27:59.735Z,93.67
2022-12-01T01:30:27.024Z,96.13
2022-12-01T01:32:54.272Z,87.63
2022-12-01T01:35:21.360Z,86.97
2022-12-01T01:37:50.094Z,90.70
2022-12-01T01:40:17.373Z,81.73
2022-12-01T01:42:44.204Z,89.77
2022-12-01T01:45:25.209Z,78.77
2022-12-01T01:47:53.775Z,78.47
2022-12-01T01:50:24.261Z,69.73
2022-12-01T01:53:01.175Z,72.83
2022-12-01T01:55:31.700Z,70.07
2022-12-01T01:57:59.426Z,69.00
2022-12-01T02:00:26.391Z,64.53
2022-12-01T02:02:54.155Z,75.37
2022-12-01T02:05:27.884Z,81.73
2022-12-01T02:07:57.268Z,77.77
2022-12-01T02:10:38.093Z,85.20
2022-12-01T02:13:31.545Z,73.67
2022-12-01T02:16:14.468Z,85.03
2022-12-01T02:19:07.760Z,84.13
2022-12-01T02:22:25.595Z,83.07
2022-12-01T02:25:18.409Z,83.87
2022-12-01T02:28:11.536Z,79.20
2022-12-01T02:31:01.205Z,74.87
2022-12-01T02:33:32.517Z,76.03
2022-12-01T02:36:15.414Z,80.37
2022-12-01T02:38:49.574Z,80.13
2022-12-01T02:41:23.113Z,87.80
2022-12-01T02:43:58.106Z,77.07
2022-12-01T02:46:25.077Z,68.23
2022-12-01T02:48:54.902Z,78.67
2022-12-01T02:51:28.981Z,71.80
2022-12-01T02:53:58.455Z,73.00
2022-12-01T02:56:25.790Z,62.63
2022-12-01T02:58:52.709Z,59.87
2022-12-01T03:01:38.456Z,59.13
2022-12-01T03:04:43.068Z,61.37
2022-12-01T03:07:21.110Z,56.90
2022-12-01T03:10:00.324Z,54.17
2022-12-01T03:12:42.133Z,49.83
2022-12-01T03:15:31.891Z,55.93
2022-12-01T03:18:23.266Z,58.63
2022-12-01T03:20:50.147Z,53.47
2022-12-01T03:23:21.179Z,55.60
2022-12-01T03:25:51.805Z,57.80
2022-12-01T03:28:23.759Z,54.97
2022-12-01T03:30:56.503Z,53.43
2022-12-01T03:33:36.527Z,53.20
2022-12-01T03:36:40.848Z,51.37
2022-12-01T03:39:14.991Z,56.50
2022-12-01T03:41:49.094Z,52.47
2022-12-01T03:44:24.341Z,56.10
2022-12-01T03:47:04.366Z,57.60
2022-12-01T03:49:32.057Z,53.27
2022-12-01T03:52:03.833Z,54.20
2022-12-01T03:54:45.370Z,51.43
2022-12-01T03:57:18.603Z,53.93
2022-12-01T03:59:47.765Z,58.23
2022-12-01T04:02:15.179Z,48.43
2022-12-01T04:04:42.077Z,52.63
2022-12-01T04:07:13.392Z,52.17
2022-12-01T04:09:41.902Z,49.13
2022-12-01T04:12:32.820Z,49.87
2022-12-01T04:15:02.471Z,44.57
2022-12-01T04:17:29.773Z,45.87
2022-12-01T04:19:57.017Z,50.33
2022-12-01T04:22:24.426Z,44.97
2022-12-01T04:24:51.776Z,52.97
2022-12-01T04:27:19.729Z,49.93
2022-12-01T04:29:47.341Z,46.77
2022-12-01T04:32:14.596Z,51.53
2022-12-01T04:34:41.475Z,50.40
2022-12-01T04:37:10.143Z,49.97
2022-12-01T04:39:37.198Z,48.37
2022-12-01T04:42:05.087Z,54.77
2022-12-01T04:44:35.036Z,53.80
2022-12-01T04:47:03.525Z,61.47
2022-12-01T04:49:30.856Z,57.90
2022-12-01T04:51:57.866Z,54.57
2022-12-01T04:54:25.266Z,53.17
2022-12-01T04:56:52.134Z,55.60
2022-12-01T04:59:19.083Z,50.20
2022-12-01T05:01:48.187Z,50.07
2022-12-01T05:04:15.876Z,57.80
2022-12-01T05:06:43.283Z,52.10
2022-12-01T05:09:17.373Z,55.77
2022-12-01T05:11:44.915Z,49.03
2022-12-01T05:14:11.819Z,47.97
2022-12-01T05:16:38.882Z,50.03
2022-12-01T05:19:25.332Z,48.90
2022-12-01T05:21:52.469Z,46.53
2022-12-01T05:24:20.526Z,51.43
2022-12-01T05:26:47.410Z,52.10
2022-12-01T05:29:14.358Z,53.23
2022-12-01T05:31:41.389Z,50.27
2022-12-01T05:34:08.961Z,53.17
2022-12-01T05:36:36.427Z,48.10
2022-12-01T05:39:04.390Z,50.90
2022-12-01T05:41:31.688Z,47.07
2022-12-01T05:43:58.610Z,47.93
2022-12-01T05:46:25.633Z,54.03
2022-12-01T05:48:52.635Z,51.13
2022-12-01T05:51:19.581Z,49.63
2022-12-01T05:53:46.612Z,54.30
2022-12-01T05:56:13.617Z,51.13
2022-12-01T05:58:40.613Z,57.60
2022-12-01T06:01:07.639Z,48.90
2022-12-01T06:03:34.549Z,58.17
2022-12-01T06:06:01.465Z,56.40
2022-12-01T06:08:28.435Z,55.20
2022-12-01T06:10:55.387Z,56.73
2022-12-01T06:13:22.330Z,58.70
2022-12-01T06:16:00.333Z,52.80
2022-12-01T06:18:28.080Z,48.47
2022-12-01T06:20:54.996Z,51.20
2022-12-01T06:23:24.295Z,50.17
2022-12-01T06:25:54.568Z,50.57
2022-12-01T06:28:21.917Z,58.67
2022-12-01T06:30:48.798Z,57.67
2022-12-01T06:33:15.718Z,59.57
2022-12-01T06:35:42.695Z,51.60
2022-12-01T06:38:09.647Z,50.47
2022-12-01T06:40:36.759Z,48.50
2022-12-01T06:43:04.020Z,50.23
2022-12-01T06:45:31.630Z,53.60
2022-12-01T06:47:58.580Z,54.10
2022-12-01T06:50:26.020Z,55.67
2022-12-01T06:52:53.072Z,51.17
2022-12-01T06:55:20.043Z,44.70
2022-12-01T06:57:47.302Z,48.93
2022-12-01T07:00:14.966Z,58.90
2022-12-01T07:02:42.212Z,57.13
2022-12-01T07:05:09.453Z,57.00
2022-12-01T07:07:40.669Z,63.43
2022-12-01T07:10:09.372Z,64.83
2022-12-01T07:12:36.334Z,55.73
2022-12-01T07:15:04.464Z,68.03
2022-12-01T07:17:31.340Z,60.33
2022-12-01T07:19:58.482Z,65.20
2022-12-01T07:22:29.603Z,61.47
2022-12-01T07:24:59.459Z,69.47
2022-12-01T07:27:29.880Z,72.03
2022-12-01T07:29:56.795Z,70.03
2022-12-01T07:32:23.846Z,68.90
2022-12-01T07:34:50.756Z,71.80
2022-12-01T07:37:18.805Z,74.63
2022-12-01T07:39:45.655Z,70.07
2022-12-01T07:42:12.460Z,73.53
2022-12-01T07:44:39.346Z,73.23
2022-12-01T07:47:06.256Z,68.03
2022-12-01T07:49:34.314Z,73.20
2022-12-01T07:52:01.161Z,66.27
2022-12-01T07:54:28.088Z,69.93
2022-12-01T07:56:54.965Z,70.73
2022-12-01T07:59:21.970Z,78.00
2022-12-01T08:01:48.865Z,77.33
2022-12-01T08:04:15.800Z,78.80
2022-12-01T08:06:42.795Z,82.07
2022-12-01T08:09:09.713Z,80.33
2022-12-01T08:11:36.650Z,81.57
2022-12-01T08:14:03.627Z,74.97
2022-12-01T08:16:31.413Z,75.10
2022-12-01T08:18:58.488Z,77.03
2022-12-01T08:21:25.384Z,78.03
2022-12-01T08:23:54.661Z,78.80
2022-12-01T08:26:23.278Z,81.40
2022-12-01T08:28:50.310Z,86.63
2022-12-01T08:31:17.208Z,77.93
2022-12-01T08:33:44.252Z,82.13
2022-12-01T08:36:11.291Z,80.57
2022-12-01T08:38:38.276Z,77.80
2022-12-01T08:41:08.573Z,75.27
2022-12-01T08:46:36.989Z,75.53
2022-12-01T08:49:05.512Z,81.57
2022-12-01T08:51:32.459Z,76.53
2022-12-01T08:54:00.450Z,78.17
2022-12-01T08:56:44.734Z,73.13
2022-12-01T08:59:11.710Z,82.00
2022-12-01T09:01:53.953Z,76.63
2022-12-01T09:04:23.829Z,74.63
2022-12-01T09:06:52.800Z,74.37
2022-12-01T09:09:25.527Z,73.13
2022-12-01T09:11:53.229Z,79.30
2022-12-01T09:14:21.960Z,75.93
2022-12-01T09:16:50.137Z,75.63
2022-12-01T09:19:23.946Z,76.80
2022-12-01T09:21:52.584Z,77.90
2022-12-01T09:24:19.608Z,75.50
2022-12-01T09:26:46.538Z,77.77
2022-12-01T09:29:15.213Z,74.83
2022-12-01T09:31:43.173Z,74.03
2022-12-01T09:34:15.986Z,82.20
2022-12-01T09:36:44.683Z,79.37
2022-12-01T09:39:17.047Z,76.40
2022-12-01T09:42:13.783Z,73.67
2022-12-01T09:44:53.309Z,76.73
2022-12-01T09:47:26.267Z,78.90
2022-12-01T09:49:56.459Z,77.83
2022-12-01T09:52:26.490Z,72.00
2022-12-01T09:54:55.265Z,73.67
2022-12-01T09:57:29.734Z,73.40
2022-12-01T09:59:58.543Z,67.67
2022-12-01T10:02:29.558Z,76.47
2022-12-01T10:04:59.413Z,70.40
2022-12-01T10:07:35.018Z,72.77
2022-12-01T10:10:12.889Z,68.20
2022-12-01T10:12:43.262Z,68.77
2022-12-01T10:15:26.076Z,71.60
2022-12-01T10:18:35.000Z,71.87
2022-12-01T10:21:13.319Z,73.50
2022-12-01T10:24:10.077Z,71.53
2022-12-01T10:26:40.038Z,72.93
2022-12-01T10:29:20.285Z,72.47
2022-12-01T10:31:53.349Z,73.87
2022-12-01T10:34:30.090Z,74.37
2022-12-01T10:36:58.041Z,71.60
2022-12-01T10:39:36.722Z,69.60
2022-12-01T10:42:27.265Z,73.40
2022-12-01T10:44:56.354Z,69.60
2022-12-01T10:47:25.509Z,66.93
2022-12-01T10:49:53.143Z,67.67
2022-12-01T10:52:34.137Z,66.63
2022-12-01T10:55:02.242Z,61.60
2022-12-01T10:57:31.112Z,64.13
2022-12-01T11:00:08.994Z,63.87
2022-12-01T11:02:36.324Z,63.23
2022-12-01T11:05:07.068Z,58.30
2022-12-01T11:07:41.874Z,60.67
2022-12-01T11:10:27.566Z,53.53
2022-12-01T11:12:54.447Z,59.97
2022-12-01T11:15:26.877Z,59.67
2022-12-01T11:18:03.152Z,57.33
2022-12-01T11:20:39.948Z,52.00
2022-12-01T11:23:20.705Z,52.37
2022-12-01T11:26:15.117Z,55.57
2022-12-01T11:28:58.667Z,56.60
2022-12-01T11:31:45.224Z,49.17
2022-12-01T11:34:30.074Z,48.30
2022-12-01T11:37:00.417Z,51.57
2022-12-01T11:39:40.269Z,50.70
2022-12-01T11:42:27.781Z,52.27
2022-12-01T11:45:20.482Z,51.70
2022-12-01T11:48:17.341Z,52.20
2022-12-01T11:51:22.502Z,51.83
2022-12-01T11:53:49.423Z,48.90
2022-12-01T11:56:23.938Z,55.67
2022-12-01T11:59:02.352Z,52.17
2022-12-01T12:01:41.311Z,46.07
2022-12-01T12:04:43.711Z,46.80
2022-12-01T12:07:39.829Z,43.90
2022-12-01T12:10:45.400Z,47.87
2022-12-01T12:13:45.096Z,49.30
2022-12-01T12:16:30.255Z,50.83
2022-12-01T12:19:02.004Z,50.80
2022-12-01T12:21:55.958Z,50.73
2022-12-01T12:24:25.852Z,52.73
2022-12-01T12:27:32.836Z,54.53
2022-12-01T12:30:24.282Z,53.53
2022-12-01T12:32:59.971Z,54.23
2022-12-01T12:36:14.332Z,48.97
2022-12-01T12:39:19.369Z,49.93
2022-12-01T12:41:52.014Z,48.70
2022-12-01T12:44:37.387Z,48.27
2022-12-01T12:47:22.189Z,44.60
2022-12-01T12:50:07.394Z,49.07
2022-12-01T12:52:48.136Z,53.17
2022-12-01T12:55:34.577Z,49.93
2022-12-01T12:58:26.399Z,53.93
2022-12-01T13:01:05.234Z,60.27
2022-12-01T13:04:02.141Z,67.37
2022-12-01T13:06:32.001Z,73.17
2022-12-01T13:09:15.226Z,68.47
2022-12-01T13:12:17.039Z,66.53
2022-12-01T13:14:48.631Z,63.60
2022-12-01T13:17:24.610Z,62.93
2022-12-01T13:19:51.811Z,61.77
2022-12-01T13:22:24.212Z,63.13
2022-12-01T13:24:51.117Z,72.63
2022-12-01T13:27:21.229Z,63.67
2022-12-01T13:29:52.452Z,70.67
2022-12-01T13:32:40.549Z,65.33
2022-12-01T13:35:35.054Z,63.10
2022-12-01T13:38:33.949Z,59.63
2022-12-01T13:41:18.212Z,64.67
2022-12-01T13:43:54.292Z,55.33
2022-12-01T13:46:24.522Z,59.37
2022-12-01T13:48:54.631Z,66.67
2022-12-01T13:51:21.667Z,63.67
2022-12-01T13:53:57.470Z,70.60
2022-12-01T13:56:39.340Z,83.23
2022-12-01T13:59:43.887Z,75.90
2022-12-01T14:02:21.093Z,78.10
2022-12-01T14:04:48.722Z,61.27
2022-12-01T14:07:36.478Z,59.93
2022-12-01T14:10:24.779Z,59.80
2022-12-01T14:12:54.053Z,52.60
2022-12-01T14:15:35.462Z,60.30
2022-12-01T14:18:23.598Z,53.97
2022-12-01T14:20:50.744Z,66.77
2022-12-01T14:23:29.287Z,58.13
2022-12-01T14:26:14.309Z,62.37
2022-12-01T14:29:23.506Z,62.33
2022-12-01T14:31:50.484Z,60.50
2022-12-01T14:34:19.949Z,65.40
2022-12-01T14:36:52.731Z,61.87
2022-12-01T14:39:23.468Z,65.73
2022-12-01T14:41:58.256Z,61.17
2022-12-01T14:44:36.293Z,63.17
2022-12-01T14:47:29.223Z,53.23
2022-12-01T14:50:12.262Z,51.60
2022-12-01T14:52:42.254Z,50.80
2022-12-01T14:55:27.657Z,48.70
2022-12-01T14:58:05.197Z,46.57
2022-12-01T15:00:36.584Z,50.40
2022-12-01T15:03:13.038Z,47.43
2022-12-01T15:05:42.725Z,47.20
2022-12-01T15:11:21.190Z,48.67
2022-12-01T15:13:52.423Z,48.93
2022-12-01T15:16:22.840Z,49.37
2022-12-01T15:18:50.842Z,49.57
2022-12-01T15:21:30.510Z,47.77
2022-12-01T15:24:06.554Z,48.80
2022-12-01T15:26:48.656Z,46.90
2022-12-01T15:29:35.277Z,46.07
2022-12-01T15:32:07.054Z,49.07
2022-12-01T15:34:40.075Z,46.47
2022-12-01T15:37:15.706Z,47.33
2022-12-01T15:39:50.348Z,49.37
2022-12-01T15:42:26.729Z,49.80
2022-12-01T15:45:02.520Z,50.03
2022-12-01T15:47:56.974Z,49.10
2022-12-01T15:50:26.516Z,47.53
2022-12-01T15:52:53.445Z,46.73
2022-12-01T15:55:27.179Z,51.20
2022-12-01T15:57:54.569Z,53.77
2022-12-01T16:00:22.380Z,50.90
2022-12-01T16:02:52.526Z,53.20
2022-12-01T16:05:23.984Z,53.77
2022-12-01T16:08:12.796Z,53.03
2022-12-01T16:10:37.780Z,51.93
2022-12-01T16:13:42.139Z,52.07
2022-12-01T16:16:30.138Z,56.60
2022-12-01T16:19:07.868Z,53.53
2022-12-01T16:21:42.738Z,57.10
2022-12-01T16:24:14.759Z,61.50
2022-12-01T16:27:21.144Z,54.93
2022-12-01T16:29:56.092Z,55.13
2022-12-01T16:32:40.766Z,55.80
2022-12-01T16:35:27.405Z,60.03
2022-12-01T16:37:55.387Z,56.23
2022-12-01T16:40:22.700Z,57.50
2022-12-01T16:42:50.071Z,63.90
2022-12-01T16:45:18.893Z,59.20
2022-12-01T16:47:47.989Z,67.37
2022-12-01T16:50:17.008Z,54.93
2022-12-01T16:52:45.341Z,52.73
2022-12-01T16:55:41.796Z,49.30
2022-12-01T16:58:08.731Z,50.97
2022-12-01T17:00:36.090Z,53.03
2022-12-01T17:03:04.435Z,51.90
2022-12-01T17:05:31.732Z,49.23
2022-12-01T17:07:58.730Z,45.93
2022-12-01T17:10:26.188Z,48.03
2022-12-01T17:12:53.157Z,48.27
2022-12-01T17:15:20.228Z,49.13
2022-12-01T17:17:47.203Z,43.27
2022-12-01T17:20:15.124Z,46.43
2022-12-01T17:22:42.183Z,48.03
2022-12-01T17:25:12.429Z,49.07
2022-12-01T17:27:39.501Z,54.90
2022-12-01T17:30:07.343Z,48.00
2022-12-01T17:32:34.253Z,49.27
2022-12-01T17:35:01.163Z,50.10
2022-12-01T17:37:28.198Z,53.53
2022-12-01T17:39:55.139Z,50.20
2022-12-01T17:42:22.814Z,56.23
2022-12-01T17:44:49.930Z,53.17
2022-12-01T17:47:17.234Z,56.93
2022-12-01T17:49:44.183Z,57.90
2022-12-01T17:52:11.153Z,55.67
2022-12-01T17:54:38.264Z,53.87
2022-12-01T17:57:07.355Z,58.63
2022-12-01T17:59:36.691Z,53.47
2022-12-01T18:02:04.196Z,60.37
2022-12-01T18:04:31.668Z,53.90
2022-12-01T18:06:59.379Z,56.20
2022-12-01T18:09:26.814Z,53.90
2022-12-01T18:11:56.213Z,49.70
2022-12-01T18:14:24.295Z,57.53
2022-12-01T18:16:51.493Z,56.33
2022-12-01T18:19:19.252Z,59.13
2022-12-01T18:21:46.178Z,56.67
2022-12-01T18:24:13.090Z,56.07
2022-12-01T18:26:41.074Z,54.77
2022-12-01T18:29:25.589Z,52.03
2022-12-01T18:31:57.032Z,55.30
2022-12-01T18:34:25.128Z,57.73
2022-12-01T18:36:52.218Z,50.60
2022-12-01T18:39:19.169Z,62.37
2022-12-01T18:41:46.297Z,57.87
2022-12-01T18:44:13.416Z,52.77
2022-12-01T18:46:40.451Z,59.43
2022-12-01T18:49:09.034Z,56.03
2022-12-01T18:51:38.139Z,57.73
2022-12-01T18:54:06.893Z,56.70
2022-12-01T18:56:34.415Z,61.33
2022-12-01T18:59:06.668Z,54.40
2022-12-01T19:01:40.380Z,59.00
2022-12-01T19:04:08.865Z,59.00
2022-12-01T19:06:37.515Z,57.87
2022-12-01T19:09:06.396Z,61.80
2022-12-01T19:11:33.598Z,62.03
2022-12-01T19:14:00.932Z,57.53
2022-12-01T19:16:30.924Z,56.77
2022-12-01T19:18:57.856Z,55.77
2022-12-01T19:21:24.824Z,56.87
2022-12-01T19:23:53.142Z,55.93
2022-12-01T19:26:21.595Z,55.83
2022-12-01T19:28:49.150Z,59.37
2022-12-01T19:31:19.322Z,58.57
2022-12-01T19:33:47.148Z,59.23
2022-12-01T19:36:21.828Z,57.47
2022-12-01T19:38:49.595Z,58.87
2022-12-01T19:41:16.735Z,63.87
2022-12-01T19:43:43.599Z,59.73
2022-12-01T19:46:16.181Z,59.87
2022-12-01T19:48:45.312Z,59.27
2022-12-01T19:51:20.732Z,55.20
2022-12-01T19:53:48.119Z,58.97
2022-12-01T19:56:15.680Z,57.80
2022-12-01T19:58:42.639Z,54.77
2022-12-01T20:01:12.545Z,57.30
2022-12-01T20:03:40.724Z,50.73
2022-12-01T20:06:14.372Z,53.83
2022-12-01T20:08:41.583Z,55.07
2022-12-01T20:11:09.149Z,56.57
2022-12-01T20:13:39.679Z,56.43
2022-12-01T20:16:08.371Z,57.03
2022-12-01T20:18:36.489Z,54.90
2022-12-01T20:21:10.668Z,61.37
2022-12-01T20:23:38.078Z,58.97
2022-12-01T20:26:07.137Z,62.73
2022-12-01T20:28:35.368Z,51.83
2022-12-01T20:31:02.893Z,55.70
2022-12-01T20:33:30.202Z,61.87
2022-12-01T20:35:57.179Z,59.17
2022-12-01T20:38:27.512Z,61.33
2022-12-01T20:40:55.592Z,54.47
2022-12-01T20:43:22.514Z,49.97
2022-12-01T20:45:49.482Z,58.13
2022-12-01T20:48:16.689Z,58.43
2022-12-01T20:50:43.990Z,52.97
2022-12-01T20:53:11.038Z,56.13
2022-12-01T20:55:38.576Z,50.77
2022-12-01T20:58:08.596Z,49.40
2022-12-01T21:00:40.356Z,43.97
2022-12-01T21:03:07.322Z,55.40
2022-12-01T21:05:34.317Z,46.60
2022-12-01T21:08:02.502Z,45.20
2022-12-01T21:10:29.473Z,44.93
2022-12-01T21:13:20.941Z,51.00
2022-12-01T21:16:03.585Z,45.13
2022-12-01T21:18:55.365Z,48.37
2022-12-01T21:21:27.944Z,54.83
2022-12-01T21:24:02.318Z,50.17
2022-12-01T21:26:29.385Z,47.83
2022-12-01T21:28:59.135Z,41.60
2022-12-01T21:31:26.802Z,45.20
2022-12-01T21:33:54.062Z,46.07
2022-12-01T21:36:24.008Z,43.67
2022-12-01T21:38:55.849Z,43.77
2022-12-01T21:41:28.513Z,45.67
2022-12-01T21:44:00.136Z,46.00
2022-12-01T21:46:28.054Z,47.10
2022-12-01T21:48:55.277Z,45.17
2022-12-01T21:51:24.416Z,44.87
2022-12-01T21:53:53.094Z,45.17
2022-12-01T21:56:21.351Z,51.13
2022-12-01T21:58:49.230Z,48.23
2022-12-01T22:01:31.861Z,48.03
2022-12-01T22:04:02.703Z,48.13
2022-12-01T22:06:39.527Z,51.53
2022-12-01T22:09:26.477Z,50.90
2022-12-01T22:11:59.659Z,56.00
2022-12-01T22:14:33.605Z,50.43
2022-12-01T22:17:20.947Z,54.50
2022-12-01T22:20:14.057Z,46.80
2022-12-01T22:22:40.923Z,43.73
2022-12-01T22:25:24.240Z,63.40
2022-12-01T22:27:52.099Z,47.70
2022-12-01T22:30:21.149Z,56.80
2022-12-01T22:33:03.829Z,56.07
2022-12-01T22:35:49.170Z,58.23
2022-12-01T22:38:29.531Z,63.40
2022-12-01T22:41:13.905Z,63.83
2022-12-01T22:43:50.835Z,62.63
2022-12-01T22:46:29.366Z,70.77
2022-12-01T22:48:58.094Z,67.97
2022-12-01T22:51:28.747Z,64.67
2022-12-01T22:54:06.177Z,73.20
2022-12-01T22:56:43.862Z,64.80
2022-12-01T22:59:19.074Z,77.67
2022-12-01T23:01:53.521Z,77.63
2022-12-01T23:04:27.538Z,69.47
2022-12-01T23:07:12.786Z,69.90
2022-12-01T23:09:44.689Z,71.67
2022-12-01T23:12:11.479Z,76.07
2022-12-01T23:14:47.865Z,77.23
2022-12-01T23:17:29.768Z,70.37
2022-12-01T23:20:14.520Z,73.93
2022-12-01T23:22:41.574Z,79.87
2022-12-01T23:25:17.419Z,79.37
2022-12-01T23:27:46.216Z,81.30
2022-12-01T23:30:14.825Z,84.53
2022-12-01T23:32:42.829Z,72.33
2022-12-01T23:35:18.300Z,83.63
2022-12-01T23:37:47.976Z,75.80
2022-12-01T23:40:19.075Z,78.87
2022-12-01T23:42:46.249Z,75.77
2022-12-01T23:45:25.144Z,73.13
2022-12-01T23:47:54.307Z,79.63
2022-12-01T23:50:26.495Z,71.53
2022-12-01T23:52:54.230Z,70.37
2022-12-01T23:55:28.676Z,74.90
2022-12-01T23:57:56.322Z,80.83
